sensor_id;sensor_type;location;lat;lon;timestamp;P1;durP1;ratioP1;P2;durP2;ratioP2
56122;SDS011;42426;46.104;19.656;2022-09-12T00:01:32;2.75;;;2.30;;
56122;SDS011;42426;46.104;19.656;2022-09-12T00:03:59;2.38;;;1.90;;
56122;SDS011;42426;46.104;19.656;2022-09-12T00:06:27;3.25;;;2.17;;
56122;SDS011;42426;46.104;19.656;2022-09-12T00:08:55;2.45;;;2.20;;
56122;SDS011;42426;46.104;19.656;2022-09-12T00:11:33;2.35;;;1.95;;
56122;SDS011;42426;46.104;19.656;2022-09-12T00:16:42;2.47;;;2.28;;
56122;SDS011;42426;46.104;19.656;2022-09-12T00:19:20;2.45;;;2.25;;
56122;SDS011;42426;46.104;19.656;2022-09-12T00:22:10;2.47;;;2.28;;
56122;SDS011;42426;46.104;19.656;2022-09-12T00:24:37;7.30;;;2.45;;
56122;SDS011;42426;46.104;19.656;2022-09-12T00:27:05;2.25;;;2.10;;
56122;SDS011;42426;46.104;19.656;2022-09-12T00:29:31;2.50;;;2.30;;
56122;SDS011;42426;46.104;19.656;2022-09-12T00:31:56;2.47;;;2.28;;
56122;SDS011;42426;46.104;19.656;2022-09-12T00:34:22;2.45;;;2.17;;
56122;SDS011;42426;46.104;19.656;2022-09-12T00:36:48;2.28;;;2.15;;
56122;SDS011;42426;46.104;19.656;2022-09-12T00:39:14;3.13;;;2.70;;
56122;SDS011;42426;46.104;19.656;2022-09-12T00:41:41;3.95;;;2.40;;
56122;SDS011;42426;46.104;19.656;2022-09-12T00:49:38;2.67;;;2.40;;
56122;SDS011;42426;46.104;19.656;2022-09-12T00:52:12;3.95;;;3.28;;
56122;SDS011;42426;46.104;19.656;2022-09-12T00:57:17;4.40;;;3.40;;
56122;SDS011;42426;46.104;19.656;2022-09-12T00:59:47;4.38;;;3.17;;
56122;SDS011;42426;46.104;19.656;2022-09-12T01:02:20;3.80;;;2.75;;
56122;SDS011;42426;46.104;19.656;2022-09-12T01:04:46;3.90;;;2.80;;
56122;SDS011;42426;46.104;19.656;2022-09-12T01:07:12;2.60;;;2.40;;
56122;SDS011;42426;46.104;19.656;2022-09-12T01:09:39;3.20;;;2.78;;
56122;SDS011;42426;46.104;19.656;2022-09-12T01:12:08;5.35;;;2.95;;
56122;SDS011;42426;46.104;19.656;2022-09-12T01:14:34;5.90;;;3.20;;
56122;SDS011;42426;46.104;19.656;2022-09-12T01:17:00;3.35;;;3.05;;
56122;SDS011;42426;46.104;19.656;2022-09-12T01:22:35;5.68;;;3.17;;
56122;SDS011;42426;46.104;19.656;2022-09-12T01:31:17;3.58;;;3.08;;
56122;SDS011;42426;46.104;19.656;2022-09-12T01:37:36;3.28;;;2.97;;
56122;SDS011;42426;46.104;19.656;2022-09-12T01:40:11;3.60;;;3.30;;
56122;SDS011;42426;46.104;19.656;2022-09-12T01:43:21;8.65;;;5.80;;
56122;SDS011;42426;46.104;19.656;2022-09-12T01:46:05;3.40;;;3.10;;
56122;SDS011;42426;46.104;19.656;2022-09-12T01:51:20;3.95;;;3.22;;
56122;SDS011;42426;46.104;19.656;2022-09-12T01:53:58;5.78;;;3.63;;
56122;SDS011;42426;46.104;19.656;2022-09-12T01:56:32;6.05;;;4.00;;
56122;SDS011;42426;46.104;19.656;2022-09-12T01:59:14;4.10;;;3.45;;
56122;SDS011;42426;46.104;19.656;2022-09-12T02:01:55;7.35;;;4.38;;
56122;SDS011;42426;46.104;19.656;2022-09-12T02:04:39;7.53;;;3.28;;
56122;SDS011;42426;46.104;19.656;2022-09-12T02:10:15;5.80;;;3.65;;
56122;SDS011;42426;46.104;19.656;2022-09-12T02:12:57;5.00;;;3.83;;
56122;SDS011;42426;46.104;19.656;2022-09-12T02:15:36;5.85;;;3.75;;
56122;SDS011;42426;46.104;19.656;2022-09-12T02:20:52;4.35;;;3.45;;
56122;SDS011;42426;46.104;19.656;2022-09-12T02:23:27;4.80;;;4.00;;
56122;SDS011;42426;46.104;19.656;2022-09-12T02:26:30;4.95;;;3.03;;
56122;SDS011;42426;46.104;19.656;2022-09-12T02:29:00;4.25;;;3.80;;
56122;SDS011;42426;46.104;19.656;2022-09-12T02:34:17;4.95;;;3.70;;
56122;SDS011;42426;46.104;19.656;2022-09-12T02:37:02;5.50;;;4.50;;
56122;SDS011;42426;46.104;19.656;2022-09-12T02:39:28;4.90;;;3.90;;
56122;SDS011;42426;46.104;19.656;2022-09-12T02:42:03;5.65;;;3.97;;
56122;SDS011;42426;46.104;19.656;2022-09-12T02:44:30;4.60;;;3.88;;
56122;SDS011;42426;46.104;19.656;2022-09-12T02:47:00;5.18;;;4.20;;
56122;SDS011;42426;46.104;19.656;2022-09-12T02:49:47;5.03;;;4.45;;
56122;SDS011;42426;46.104;19.656;2022-09-12T02:52:13;6.43;;;4.40;;
56122;SDS011;42426;46.104;19.656;2022-09-12T02:54:39;5.95;;;4.82;;
56122;SDS011;42426;46.104;19.656;2022-09-12T02:57:14;5.72;;;4.70;;
56122;SDS011;42426;46.104;19.656;2022-09-12T02:59:46;5.50;;;4.90;;
56122;SDS011;42426;46.104;19.656;2022-09-12T03:05:30;6.40;;;4.70;;
56122;SDS011;42426;46.104;19.656;2022-09-12T03:16:33;6.03;;;4.53;;
56122;SDS011;42426;46.104;19.656;2022-09-12T03:19:09;8.57;;;5.40;;
56122;SDS011;42426;46.104;19.656;2022-09-12T03:24:38;6.22;;;5.63;;
56122;SDS011;42426;46.104;19.656;2022-09-12T03:27:28;7.47;;;5.07;;
56122;SDS011;42426;46.104;19.656;2022-09-12T03:29:57;5.80;;;5.20;;
56122;SDS011;42426;46.104;19.656;2022-09-12T03:32:43;5.63;;;5.13;;
56122;SDS011;42426;46.104;19.656;2022-09-12T03:35:12;6.13;;;5.32;;
56122;SDS011;42426;46.104;19.656;2022-09-12T03:37:38;6.93;;;4.90;;
56122;SDS011;42426;46.104;19.656;2022-09-12T03:40:05;6.10;;;5.30;;
56122;SDS011;42426;46.104;19.656;2022-09-12T03:42:31;6.75;;;5.28;;
56122;SDS011;42426;46.104;19.656;2022-09-12T03:47:49;7.18;;;6.22;;
56122;SDS011;42426;46.104;19.656;2022-09-12T03:50:15;6.60;;;4.88;;
56122;SDS011;42426;46.104;19.656;2022-09-12T03:52:41;8.77;;;5.55;;
56122;SDS011;42426;46.104;19.656;2022-09-12T03:55:07;7.13;;;6.07;;
56122;SDS011;42426;46.104;19.656;2022-09-12T03:57:33;6.25;;;5.65;;
56122;SDS011;42426;46.104;19.656;2022-09-12T04:00:03;6.07;;;5.47;;
56122;SDS011;42426;46.104;19.656;2022-09-12T04:02:32;7.80;;;6.22;;
56122;SDS011;42426;46.104;19.656;2022-09-12T04:05:04;6.43;;;5.63;;
56122;SDS011;42426;46.104;19.656;2022-09-12T04:07:30;6.53;;;4.85;;
56122;SDS011;42426;46.104;19.656;2022-09-12T04:10:02;6.10;;;5.45;;
56122;SDS011;42426;46.104;19.656;2022-09-12T04:12:28;8.85;;;5.45;;
56122;SDS011;42426;46.104;19.656;2022-09-12T04:14:55;6.57;;;5.15;;
56122;SDS011;42426;46.104;19.656;2022-09-12T04:17:21;7.47;;;6.00;;
56122;SDS011;42426;46.104;19.656;2022-09-12T04:19:47;7.68;;;6.57;;
56122;SDS011;42426;46.104;19.656;2022-09-12T04:22:17;6.72;;;5.88;;
56122;SDS011;42426;46.104;19.656;2022-09-12T04:24:45;6.57;;;5.25;;
56122;SDS011;42426;46.104;19.656;2022-09-12T04:27:10;6.80;;;5.40;;
56122;SDS011;42426;46.104;19.656;2022-09-12T04:29:45;7.22;;;6.03;;
56122;SDS011;42426;46.104;19.656;2022-09-12T04:32:11;8.52;;;6.18;;
56122;SDS011;42426;46.104;19.656;2022-09-12T04:34:38;6.82;;;5.47;;
56122;SDS011;42426;46.104;19.656;2022-09-12T04:37:03;9.70;;;5.85;;
56122;SDS011;42426;46.104;19.656;2022-09-12T04:39:29;6.72;;;5.50;;
56122;SDS011;42426;46.104;19.656;2022-09-12T04:41:57;6.20;;;5.13;;
56122;SDS011;42426;46.104;19.656;2022-09-12T04:44:22;6.63;;;5.43;;
56122;SDS011;42426;46.104;19.656;2022-09-12T04:46:48;9.60;;;6.00;;
56122;SDS011;42426;46.104;19.656;2022-09-12T04:49:18;9.15;;;6.72;;
56122;SDS011;42426;46.104;19.656;2022-09-12T04:51:44;7.57;;;6.05;;
56122;SDS011;42426;46.104;19.656;2022-09-12T04:54:12;6.25;;;5.63;;
56122;SDS011;42426;46.104;19.656;2022-09-12T04:56:40;9.48;;;6.63;;
56122;SDS011;42426;46.104;19.656;2022-09-12T04:59:08;8.65;;;6.53;;
56122;SDS011;42426;46.104;19.656;2022-09-12T05:01:38;9.30;;;6.55;;
56122;SDS011;42426;46.104;19.656;2022-09-12T05:04:04;9.35;;;6.47;;
56122;SDS011;42426;46.104;19.656;2022-09-12T05:06:31;11.70;;;7.15;;
56122;SDS011;42426;46.104;19.656;2022-09-12T05:08:59;8.18;;;6.18;;
56122;SDS011;42426;46.104;19.656;2022-09-12T05:11:27;9.77;;;7.25;;
56122;SDS011;42426;46.104;19.656;2022-09-12T05:13:54;8.00;;;7.20;;
56122;SDS011;42426;46.104;19.656;2022-09-12T05:16:21;9.32;;;7.30;;
56122;SDS011;42426;46.104;19.656;2022-09-12T05:18:49;10.00;;;7.22;;
56122;SDS011;42426;46.104;19.656;2022-09-12T05:21:16;11.60;;;7.38;;
56122;SDS011;42426;46.104;19.656;2022-09-12T05:23:43;9.57;;;7.40;;
56122;SDS011;42426;46.104;19.656;2022-09-12T05:26:11;11.93;;;7.57;;
56122;SDS011;42426;46.104;19.656;2022-09-12T05:28:38;9.00;;;7.00;;
56122;SDS011;42426;46.104;19.656;2022-09-12T05:33:44;9.88;;;7.05;;
56122;SDS011;42426;46.104;19.656;2022-09-12T05:36:18;11.15;;;7.57;;
56122;SDS011;42426;46.104;19.656;2022-09-12T05:38:51;9.98;;;7.50;;
56122;SDS011;42426;46.104;19.656;2022-09-12T05:41:20;10.32;;;8.18;;
56122;SDS011;42426;46.104;19.656;2022-09-12T05:43:53;10.63;;;7.93;;
56122;SDS011;42426;46.104;19.656;2022-09-12T05:46:22;13.50;;;8.38;;
56122;SDS011;42426;46.104;19.656;2022-09-12T05:48:49;9.90;;;7.85;;
56122;SDS011;42426;46.104;19.656;2022-09-12T05:51:17;12.00;;;8.70;;
56122;SDS011;42426;46.104;19.656;2022-09-12T05:53:46;11.65;;;8.38;;
56122;SDS011;42426;46.104;19.656;2022-09-12T05:56:15;9.30;;;8.15;;
56122;SDS011;42426;46.104;19.656;2022-09-12T05:58:43;13.35;;;8.50;;
56122;SDS011;42426;46.104;19.656;2022-09-12T06:01:12;14.55;;;8.82;;
56122;SDS011;42426;46.104;19.656;2022-09-12T06:03:40;15.02;;;9.38;;
56122;SDS011;42426;46.104;19.656;2022-09-12T06:06:08;12.35;;;8.93;;
56122;SDS011;42426;46.104;19.656;2022-09-12T06:08:38;13.35;;;8.95;;
56122;SDS011;42426;46.104;19.656;2022-09-12T06:11:06;14.20;;;9.07;;
56122;SDS011;42426;46.104;19.656;2022-09-12T06:13:34;12.50;;;9.38;;
56122;SDS011;42426;46.104;19.656;2022-09-12T06:16:09;14.10;;;9.32;;
56122;SDS011;42426;46.104;19.656;2022-09-12T06:18:37;13.20;;;8.27;;
56122;SDS011;42426;46.104;19.656;2022-09-12T06:21:06;14.00;;;9.43;;
56122;SDS011;42426;46.104;19.656;2022-09-12T06:23:33;13.02;;;8.77;;
56122;SDS011;42426;46.104;19.656;2022-09-12T06:26:00;11.43;;;8.80;;
56122;SDS011;42426;46.104;19.656;2022-09-12T06:28:26;11.52;;;9.35;;
56122;SDS011;42426;46.104;19.656;2022-09-12T06:30:52;11.93;;;7.90;;
56122;SDS011;42426;46.104;19.656;2022-09-12T06:33:25;12.50;;;8.77;;
56122;SDS011;42426;46.104;19.656;2022-09-12T06:35:51;12.20;;;8.88;;
56122;SDS011;42426;46.104;19.656;2022-09-12T06:38:16;13.65;;;9.15;;
56122;SDS011;42426;46.104;19.656;2022-09-12T06:40:42;13.32;;;9.63;;
56122;SDS011;42426;46.104;19.656;2022-09-12T06:43:10;11.60;;;8.40;;
56122;SDS011;42426;46.104;19.656;2022-09-12T06:45:38;13.15;;;8.13;;
56122;SDS011;42426;46.104;19.656;2022-09-12T06:48:04;10.07;;;7.63;;
56122;SDS011;42426;46.104;19.656;2022-09-12T06:50:30;9.10;;;7.70;;
56122;SDS011;42426;46.104;19.656;2022-09-12T06:52:56;11.05;;;6.90;;
56122;SDS011;42426;46.104;19.656;2022-09-12T06:55:21;11.43;;;7.40;;
56122;SDS011;42426;46.104;19.656;2022-09-12T06:57:48;10.25;;;7.20;;
56122;SDS011;42426;46.104;19.656;2022-09-12T07:00:16;10.15;;;6.97;;
56122;SDS011;42426;46.104;19.656;2022-09-12T07:02:42;10.70;;;7.40;;
56122;SDS011;42426;46.104;19.656;2022-09-12T07:05:07;9.27;;;7.43;;
56122;SDS011;42426;46.104;19.656;2022-09-12T07:07:34;9.48;;;6.85;;
56122;SDS011;42426;46.104;19.656;2022-09-12T07:10:00;8.65;;;6.95;;
56122;SDS011;42426;46.104;19.656;2022-09-12T07:12:29;8.23;;;6.20;;
56122;SDS011;42426;46.104;19.656;2022-09-12T07:14:55;9.35;;;7.20;;
56122;SDS011;42426;46.104;19.656;2022-09-12T07:17:22;10.65;;;7.72;;
56122;SDS011;42426;46.104;19.656;2022-09-12T07:19:48;11.00;;;7.20;;
56122;SDS011;42426;46.104;19.656;2022-09-12T07:22:13;8.35;;;6.70;;
56122;SDS011;42426;46.104;19.656;2022-09-12T07:24:39;8.05;;;6.50;;
56122;SDS011;42426;46.104;19.656;2022-09-12T07:27:06;9.38;;;6.43;;
56122;SDS011;42426;46.104;19.656;2022-09-12T07:29:32;8.65;;;6.35;;
56122;SDS011;42426;46.104;19.656;2022-09-12T07:31:58;9.70;;;6.85;;
56122;SDS011;42426;46.104;19.656;2022-09-12T07:34:25;11.23;;;7.07;;
56122;SDS011;42426;46.104;19.656;2022-09-12T07:36:51;10.35;;;6.93;;
56122;SDS011;42426;46.104;19.656;2022-09-12T07:39:17;9.10;;;7.25;;
56122;SDS011;42426;46.104;19.656;2022-09-12T07:41:44;10.15;;;7.32;;
56122;SDS011;42426;46.104;19.656;2022-09-12T07:44:10;8.75;;;7.32;;
56122;SDS011;42426;46.104;19.656;2022-09-12T07:46:36;8.80;;;6.30;;
56122;SDS011;42426;46.104;19.656;2022-09-12T07:49:03;7.45;;;6.32;;
56122;SDS011;42426;46.104;19.656;2022-09-12T07:51:30;8.60;;;6.68;;
56122;SDS011;42426;46.104;19.656;2022-09-12T07:53:56;9.25;;;6.90;;
56122;SDS011;42426;46.104;19.656;2022-09-12T07:56:23;7.22;;;6.10;;
56122;SDS011;42426;46.104;19.656;2022-09-12T07:58:53;8.95;;;6.57;;
56122;SDS011;42426;46.104;19.656;2022-09-12T08:01:21;11.35;;;6.10;;
56122;SDS011;42426;46.104;19.656;2022-09-12T08:03:52;12.57;;;6.57;;
56122;SDS011;42426;46.104;19.656;2022-09-12T08:06:24;6.82;;;5.68;;
56122;SDS011;42426;46.104;19.656;2022-09-12T08:08:55;10.50;;;7.60;;
56122;SDS011;42426;46.104;19.656;2022-09-12T08:11:23;9.98;;;6.50;;
56122;SDS011;42426;46.104;19.656;2022-09-12T08:13:53;8.20;;;6.25;;
56122;SDS011;42426;46.104;19.656;2022-09-12T08:16:21;8.82;;;6.68;;
56122;SDS011;42426;46.104;19.656;2022-09-12T08:18:54;7.65;;;6.43;;
56122;SDS011;42426;46.104;19.656;2022-09-12T08:21:24;8.82;;;6.88;;
56122;SDS011;42426;46.104;19.656;2022-09-12T08:23:55;9.10;;;7.07;;
56122;SDS011;42426;46.104;19.656;2022-09-12T08:26:22;6.53;;;5.80;;
56122;SDS011;42426;46.104;19.656;2022-09-12T08:28:50;10.23;;;6.70;;
56122;SDS011;42426;46.104;19.656;2022-09-12T08:31:18;8.73;;;6.25;;
56122;SDS011;42426;46.104;19.656;2022-09-12T08:33:44;6.53;;;5.88;;
56122;SDS011;42426;46.104;19.656;2022-09-12T08:36:14;9.32;;;6.30;;
56122;SDS011;42426;46.104;19.656;2022-09-12T08:38:46;7.35;;;6.20;;
56122;SDS011;42426;46.104;19.656;2022-09-12T08:49:06;7.57;;;5.43;;
56122;SDS011;42426;46.104;19.656;2022-09-12T08:51:35;5.97;;;5.28;;
56122;SDS011;42426;46.104;19.656;2022-09-12T08:54:02;6.10;;;5.50;;
56122;SDS011;42426;46.104;19.656;2022-09-12T08:59:04;9.45;;;5.53;;
56122;SDS011;42426;46.104;19.656;2022-09-12T09:01:30;7.72;;;5.28;;
56122;SDS011;42426;46.104;19.656;2022-09-12T09:04:03;8.85;;;4.53;;
56122;SDS011;42426;46.104;19.656;2022-09-12T09:06:56;6.95;;;5.20;;
56122;SDS011;42426;46.104;19.656;2022-09-12T09:17:54;6.53;;;5.45;;
56122;SDS011;42426;46.104;19.656;2022-09-12T09:20:48;7.30;;;4.53;;
56122;SDS011;42426;46.104;19.656;2022-09-12T09:23:28;5.90;;;4.88;;
56122;SDS011;42426;46.104;19.656;2022-09-12T09:26:16;5.68;;;4.75;;
56122;SDS011;42426;46.104;19.656;2022-09-12T09:28:51;3.88;;;3.47;;
56122;SDS011;42426;46.104;19.656;2022-09-12T09:31:22;5.75;;;5.10;;
56122;SDS011;42426;46.104;19.656;2022-09-12T09:33:54;10.40;;;4.57;;
56122;SDS011;42426;46.104;19.656;2022-09-12T09:36:22;7.38;;;4.53;;
56122;SDS011;42426;46.104;19.656;2022-09-12T09:38:57;5.88;;;4.10;;
56122;SDS011;42426;46.104;19.656;2022-09-12T09:44:12;5.53;;;4.18;;
56122;SDS011;42426;46.104;19.656;2022-09-12T09:46:38;8.35;;;4.78;;
56122;SDS011;42426;46.104;19.656;2022-09-12T09:49:04;6.72;;;4.88;;
56122;SDS011;42426;46.104;19.656;2022-09-12T09:51:33;5.57;;;4.35;;
56122;SDS011;42426;46.104;19.656;2022-09-12T09:54:00;5.93;;;4.50;;
56122;SDS011;42426;46.104;19.656;2022-09-12T09:56:32;5.22;;;4.60;;
56122;SDS011;42426;46.104;19.656;2022-09-12T10:01:50;4.90;;;3.80;;
56122;SDS011;42426;46.104;19.656;2022-09-12T10:04:52;5.47;;;3.95;;
56122;SDS011;42426;46.104;19.656;2022-09-12T10:07:18;5.32;;;3.92;;
56122;SDS011;42426;46.104;19.656;2022-09-12T10:12:30;5.60;;;3.92;;
56122;SDS011;42426;46.104;19.656;2022-09-12T10:14:57;5.28;;;4.03;;
56122;SDS011;42426;46.104;19.656;2022-09-12T10:17:31;4.88;;;4.20;;
56122;SDS011;42426;46.104;19.656;2022-09-12T10:20:04;4.88;;;3.95;;
56122;SDS011;42426;46.104;19.656;2022-09-12T10:22:30;12.90;;;4.22;;
56122;SDS011;42426;46.104;19.656;2022-09-12T10:24:57;4.55;;;4.15;;
56122;SDS011;42426;46.104;19.656;2022-09-12T10:27:25;5.10;;;3.83;;
56122;SDS011;42426;46.104;19.656;2022-09-12T10:30:16;7.43;;;4.00;;
56122;SDS011;42426;46.104;19.656;2022-09-12T10:32:43;6.60;;;3.90;;
56122;SDS011;42426;46.104;19.656;2022-09-12T10:35:21;6.13;;;4.38;;
56122;SDS011;42426;46.104;19.656;2022-09-12T10:37:51;4.38;;;3.78;;
56122;SDS011;42426;46.104;19.656;2022-09-12T10:40:34;4.50;;;3.90;;
56122;SDS011;42426;46.104;19.656;2022-09-12T10:43:22;5.07;;;4.00;;
56122;SDS011;42426;46.104;19.656;2022-09-12T10:46:09;5.18;;;3.72;;
56122;SDS011;42426;46.104;19.656;2022-09-12T10:49:12;6.78;;;4.25;;
56122;SDS011;42426;46.104;19.656;2022-09-12T10:51:41;6.07;;;4.53;;
56122;SDS011;42426;46.104;19.656;2022-09-12T10:54:07;9.50;;;4.13;;
56122;SDS011;42426;46.104;19.656;2022-09-12T11:02:13;4.03;;;3.63;;
56122;SDS011;42426;46.104;19.656;2022-09-12T11:07:46;8.00;;;4.10;;
56122;SDS011;42426;46.104;19.656;2022-09-12T11:13:01;6.75;;;4.00;;
56122;SDS011;42426;46.104;19.656;2022-09-12T11:15:54;4.55;;;4.07;;
56122;SDS011;42426;46.104;19.656;2022-09-12T11:18:43;7.40;;;4.75;;
56122;SDS011;42426;46.104;19.656;2022-09-12T11:24:04;5.93;;;3.72;;
56122;SDS011;42426;46.104;19.656;2022-09-12T11:26:56;4.90;;;3.95;;
56122;SDS011;42426;46.104;19.656;2022-09-12T11:40:19;4.38;;;3.60;;
56122;SDS011;42426;46.104;19.656;2022-09-12T11:42:56;14.70;;;3.70;;
56122;SDS011;42426;46.104;19.656;2022-09-12T11:45:40;4.90;;;3.60;;
56122;SDS011;42426;46.104;19.656;2022-09-12T11:48:13;8.15;;;4.53;;
56122;SDS011;42426;46.104;19.656;2022-09-12T11:51:13;5.43;;;3.85;;
56122;SDS011;42426;46.104;19.656;2022-09-12T11:53:46;4.80;;;4.03;;
56122;SDS011;42426;46.104;19.656;2022-09-12T11:56:26;6.50;;;3.70;;
56122;SDS011;42426;46.104;19.656;2022-09-12T11:59:00;4.63;;;3.50;;
56122;SDS011;42426;46.104;19.656;2022-09-12T12:01:42;6.15;;;3.60;;
56122;SDS011;42426;46.104;19.656;2022-09-12T12:04:11;6.28;;;3.42;;
56122;SDS011;42426;46.104;19.656;2022-09-12T12:06:46;5.82;;;3.80;;
56122;SDS011;42426;46.104;19.656;2022-09-12T12:09:13;6.60;;;3.90;;
56122;SDS011;42426;46.104;19.656;2022-09-12T12:11:50;8.38;;;4.20;;
56122;SDS011;42426;46.104;19.656;2022-09-12T12:16:56;4.07;;;3.67;;
56122;SDS011;42426;46.104;19.656;2022-09-12T12:19:33;5.90;;;4.00;;
56122;SDS011;42426;46.104;19.656;2022-09-12T12:24:53;7.88;;;3.70;;
56122;SDS011;42426;46.104;19.656;2022-09-12T12:38:36;3.42;;;3.08;;
56122;SDS011;42426;46.104;19.656;2022-09-12T12:43:41;3.80;;;3.42;;
56122;SDS011;42426;46.104;19.656;2022-09-12T12:46:10;5.45;;;3.17;;
56122;SDS011;42426;46.104;19.656;2022-09-12T12:49:42;4.18;;;3.40;;
56122;SDS011;42426;46.104;19.656;2022-09-12T13:02:19;4.00;;;3.45;;
56122;SDS011;42426;46.104;19.656;2022-09-12T13:04:47;3.50;;;3.17;;
56122;SDS011;42426;46.104;19.656;2022-09-12T13:07:26;4.88;;;2.97;;
56122;SDS011;42426;46.104;19.656;2022-09-12T13:09:57;4.67;;;2.93;;
56122;SDS011;42426;46.104;19.656;2022-09-12T13:12:27;3.42;;;3.13;;
56122;SDS011;42426;46.104;19.656;2022-09-12T13:15:02;5.30;;;2.95;;
56122;SDS011;42426;46.104;19.656;2022-09-12T13:17:53;3.63;;;2.70;;
56122;SDS011;42426;46.104;19.656;2022-09-12T13:20:28;4.57;;;3.45;;
56122;SDS011;42426;46.104;19.656;2022-09-12T13:23:03;3.17;;;2.70;;
56122;SDS011;42426;46.104;19.656;2022-09-12T13:25:30;3.63;;;3.00;;
56122;SDS011;42426;46.104;19.656;2022-09-12T13:30:27;4.60;;;2.88;;
56122;SDS011;42426;46.104;19.656;2022-09-12T13:32:56;4.95;;;2.80;;
56122;SDS011;42426;46.104;19.656;2022-09-12T13:35:37;4.25;;;3.20;;
56122;SDS011;42426;46.104;19.656;2022-09-12T13:43:36;3.92;;;3.30;;
56122;SDS011;42426;46.104;19.656;2022-09-12T13:46:06;5.13;;;3.70;;
56122;SDS011;42426;46.104;19.656;2022-09-12T13:48:40;6.93;;;3.20;;
56122;SDS011;42426;46.104;19.656;2022-09-12T13:51:12;3.80;;;3.45;;
56122;SDS011;42426;46.104;19.656;2022-09-12T13:53:53;3.47;;;3.08;;
56122;SDS011;42426;46.104;19.656;2022-09-12T13:56:24;3.70;;;3.13;;
56122;SDS011;42426;46.104;19.656;2022-09-12T13:58:58;5.45;;;3.47;;
56122;SDS011;42426;46.104;19.656;2022-09-12T14:01:41;4.25;;;3.67;;
56122;SDS011;42426;46.104;19.656;2022-09-12T14:04:21;4.75;;;3.10;;
56122;SDS011;42426;46.104;19.656;2022-09-12T14:07:14;3.63;;;3.15;;
56122;SDS011;42426;46.104;19.656;2022-09-12T14:09:52;6.57;;;3.50;;
56122;SDS011;42426;46.104;19.656;2022-09-12T14:14:58;3.78;;;3.30;;
56122;SDS011;42426;46.104;19.656;2022-09-12T14:17:31;5.22;;;4.25;;
56122;SDS011;42426;46.104;19.656;2022-09-12T14:20:13;4.80;;;3.53;;
56122;SDS011;42426;46.104;19.656;2022-09-12T14:22:42;4.30;;;3.60;;
56122;SDS011;42426;46.104;19.656;2022-09-12T14:25:21;9.80;;;3.60;;
56122;SDS011;42426;46.104;19.656;2022-09-12T14:27:55;8.85;;;3.95;;
56122;SDS011;42426;46.104;19.656;2022-09-12T14:30:28;8.82;;;4.32;;
56122;SDS011;42426;46.104;19.656;2022-09-12T14:33:18;7.82;;;3.63;;
56122;SDS011;42426;46.104;19.656;2022-09-12T14:35:51;4.20;;;3.60;;
56122;SDS011;42426;46.104;19.656;2022-09-12T14:38:40;6.93;;;3.67;;
56122;SDS011;42426;46.104;19.656;2022-09-12T14:41:09;3.55;;;3.25;;
56122;SDS011;42426;46.104;19.656;2022-09-12T14:43:38;5.28;;;3.47;;
56122;SDS011;42426;46.104;19.656;2022-09-12T14:49:05;5.32;;;3.53;;
56122;SDS011;42426;46.104;19.656;2022-09-12T14:51:37;5.90;;;4.45;;
56122;SDS011;42426;46.104;19.656;2022-09-12T14:54:05;5.43;;;3.55;;
56122;SDS011;42426;46.104;19.656;2022-09-12T14:56:38;5.90;;;3.55;;
56122;SDS011;42426;46.104;19.656;2022-09-12T15:04:47;4.10;;;3.70;;
56122;SDS011;42426;46.104;19.656;2022-09-12T15:12:38;5.18;;;4.00;;
56122;SDS011;42426;46.104;19.656;2022-09-12T15:15:17;11.45;;;5.00;;
56122;SDS011;42426;46.104;19.656;2022-09-12T15:17:46;6.15;;;4.22;;
56122;SDS011;42426;46.104;19.656;2022-09-12T15:20:12;5.28;;;3.50;;
56122;SDS011;42426;46.104;19.656;2022-09-12T15:22:40;4.10;;;3.60;;
56122;SDS011;42426;46.104;19.656;2022-09-12T15:25:06;7.20;;;4.50;;
56122;SDS011;42426;46.104;19.656;2022-09-12T15:27:34;5.22;;;3.90;;
56122;SDS011;42426;46.104;19.656;2022-09-12T15:30:05;7.38;;;4.93;;
56122;SDS011;42426;46.104;19.656;2022-09-12T15:32:32;8.13;;;4.43;;
56122;SDS011;42426;46.104;19.656;2022-09-12T15:34:58;5.78;;;4.38;;
56122;SDS011;42426;46.104;19.656;2022-09-12T15:37:24;4.15;;;3.75;;
56122;SDS011;42426;46.104;19.656;2022-09-12T15:39:50;3.72;;;3.30;;
56122;SDS011;42426;46.104;19.656;2022-09-12T15:42:26;5.40;;;4.07;;
56122;SDS011;42426;46.104;19.656;2022-09-12T15:44:53;6.47;;;4.38;;
56122;SDS011;42426;46.104;19.656;2022-09-12T15:47:19;5.55;;;4.32;;
56122;SDS011;42426;46.104;19.656;2022-09-12T15:49:47;4.07;;;3.40;;
56122;SDS011;42426;46.104;19.656;2022-09-12T15:52:14;4.22;;;3.70;;
56122;SDS011;42426;46.104;19.656;2022-09-12T15:54:40;7.22;;;4.03;;
56122;SDS011;42426;46.104;19.656;2022-09-12T15:57:07;5.35;;;4.03;;
56122;SDS011;42426;46.104;19.656;2022-09-12T15:59:34;4.40;;;3.67;;
56122;SDS011;42426;46.104;19.656;2022-09-12T16:02:01;4.47;;;3.65;;
56122;SDS011;42426;46.104;19.656;2022-09-12T16:04:29;7.40;;;3.95;;
56122;SDS011;42426;46.104;19.656;2022-09-12T16:06:55;7.85;;;4.10;;
56122;SDS011;42426;46.104;19.656;2022-09-12T16:09:22;5.53;;;4.22;;
56122;SDS011;42426;46.104;19.656;2022-09-12T16:11:48;4.93;;;3.75;;
56122;SDS011;42426;46.104;19.656;2022-09-12T16:14:14;5.43;;;4.55;;
56122;SDS011;42426;46.104;19.656;2022-09-12T16:16:41;5.03;;;4.28;;
56122;SDS011;42426;46.104;19.656;2022-09-12T16:19:08;5.45;;;4.32;;
56122;SDS011;42426;46.104;19.656;2022-09-12T16:21:37;6.63;;;4.45;;
56122;SDS011;42426;46.104;19.656;2022-09-12T16:24:03;6.40;;;4.70;;
56122;SDS011;42426;46.104;19.656;2022-09-12T16:26:29;6.55;;;4.07;;
56122;SDS011;42426;46.104;19.656;2022-09-12T16:28:56;4.93;;;4.25;;
56122;SDS011;42426;46.104;19.656;2022-09-12T16:31:23;5.20;;;4.57;;
56122;SDS011;42426;46.104;19.656;2022-09-12T16:33:50;7.72;;;4.68;;
56122;SDS011;42426;46.104;19.656;2022-09-12T16:36:17;6.03;;;4.50;;
56122;SDS011;42426;46.104;19.656;2022-09-12T16:38:51;7.47;;;4.18;;
56122;SDS011;42426;46.104;19.656;2022-09-12T16:43:48;7.50;;;4.72;;
56122;SDS011;42426;46.104;19.656;2022-09-12T16:46:17;6.38;;;4.65;;
56122;SDS011;42426;46.104;19.656;2022-09-12T16:48:45;7.93;;;5.72;;
56122;SDS011;42426;46.104;19.656;2022-09-12T16:51:16;6.28;;;4.93;;
56122;SDS011;42426;46.104;19.656;2022-09-12T16:53:56;7.00;;;5.90;;
56122;SDS011;42426;46.104;19.656;2022-09-12T16:56:22;7.85;;;5.28;;
56122;SDS011;42426;46.104;19.656;2022-09-12T16:58:49;8.00;;;5.28;;
56122;SDS011;42426;46.104;19.656;2022-09-12T17:01:18;5.97;;;5.05;;
56122;SDS011;42426;46.104;19.656;2022-09-12T17:03:45;7.57;;;5.63;;
56122;SDS011;42426;46.104;19.656;2022-09-12T17:06:12;7.72;;;5.80;;
56122;SDS011;42426;46.104;19.656;2022-09-12T17:08:40;9.73;;;5.18;;
56122;SDS011;42426;46.104;19.656;2022-09-12T17:13:55;7.47;;;5.20;;
56122;SDS011;42426;46.104;19.656;2022-09-12T17:16:25;6.40;;;4.70;;
56122;SDS011;42426;46.104;19.656;2022-09-12T17:18:55;5.63;;;4.97;;
56122;SDS011;42426;46.104;19.656;2022-09-12T17:21:23;6.35;;;5.13;;
56122;SDS011;42426;46.104;19.656;2022-09-12T17:24:14;5.80;;;5.20;;
56122;SDS011;42426;46.104;19.656;2022-09-12T17:26:42;6.55;;;4.85;;
56122;SDS011;42426;46.104;19.656;2022-09-12T17:29:23;6.07;;;4.70;;
56122;SDS011;42426;46.104;19.656;2022-09-12T17:31:49;6.65;;;5.15;;
56122;SDS011;42426;46.104;19.656;2022-09-12T17:34:15;7.10;;;4.95;;
56122;SDS011;42426;46.104;19.656;2022-09-12T17:36:43;10.23;;;5.00;;
56122;SDS011;42426;46.104;19.656;2022-09-12T17:39:10;6.43;;;4.55;;
56122;SDS011;42426;46.104;19.656;2022-09-12T17:41:37;8.48;;;5.15;;
56122;SDS011;42426;46.104;19.656;2022-09-12T17:44:03;6.45;;;5.07;;